Central Virginia Flyers


Central Virginia Flyers is a 10 member flying club based in Richmond, VA at Hanover County Airport (KOFP). We own N787AT, a 1977 Cessna 172 with 180hp conversion. If you are interested in membership, please contact Brenton at brenton@cvflyers.org.


Aviation Digital Data Service (ADDS)

Output produced by METARs form (1325 UTC 26 May 2015)
found at http://aviationweather.gov/adds/metars/
 
KOFP 261254Z AUTO 20006KT 10SM CLR 23/18 A3030 RMK AO2 SLP257 T02280178
KRIC 261254Z 22010KT 10SM FEW016 SCT250 23/18 A3029 RMK AO2 SLP262 T02280178
KRIC 261120Z 2612/2712 20009KT P6SM SKC 
     FM261500 20011G17KT P6SM SCT050 BKN250 
     FM262300 19009KT P6SM BKN200